createdAt,value
2019-04-16T00:02:53.479Z,100606.52
2019-04-16T00:06:12.556Z,100607.50
2019-04-16T00:09:30.015Z,100599.33
2019-04-16T00:12:48.983Z,100600.84
2019-04-16T00:15:53.292Z,100601.42
2019-04-16T00:19:01.088Z,100603.88
2019-04-16T00:22:24.710Z,100604.04
2019-04-16T00:25:28.561Z,100599.41
2019-04-16T00:28:32.415Z,100595.08
2019-04-16T00:31:37.668Z,100584.23
2019-04-16T00:34:44.572Z,100584.39
2019-04-16T00:37:51.472Z,100586.77
2019-04-16T00:40:53.869Z,100587.67
2019-04-16T00:43:57.802Z,100588.64
2019-04-16T00:47:01.695Z,100581.27
2019-04-16T00:50:06.508Z,100578.44
2019-04-16T00:53:10.446Z,100574.67
2019-04-16T00:56:16.094Z,100565.97
2019-04-16T00:59:21.390Z,100570.91
2019-04-16T01:02:26.309Z,100563.56
2019-04-16T01:05:35.053Z,100563.00
2019-04-16T01:08:36.004Z,100567.06
2019-04-16T01:11:40.592Z,100558.11
2019-04-16T01:14:44.414Z,100562.36
2019-04-16T01:17:48.322Z,100554.45
2019-04-16T01:20:53.012Z,100559.61
2019-04-16T01:24:00.348Z,100555.28
2019-04-16T01:27:04.747Z,100551.81
2019-04-16T01:30:10.227Z,100543.27
2019-04-16T01:33:20.913Z,100541.15
2019-04-16T01:36:43.434Z,100535.47
2019-04-16T01:39:49.896Z,100532.19
2019-04-16T01:42:54.674Z,100523.50
2019-04-16T01:46:01.473Z,100523.72
2019-04-16T01:49:09.725Z,100526.13
2019-04-16T01:52:10.995Z,100515.17
2019-04-16T01:55:15.232Z,100524.70
2019-04-16T01:58:19.157Z,100520.02
2019-04-16T02:01:23.176Z,100523.67
2019-04-16T02:04:27.058Z,100517.58
2019-04-16T02:07:31.423Z,100513.66
2019-04-16T02:10:38.475Z,100525.59
2019-04-16T02:13:45.798Z,100517.69
2019-04-16T02:16:47.437Z,100528.80
2019-04-16T02:19:51.346Z,100521.31
2019-04-16T02:22:55.429Z,100525.68
2019-04-16T02:25:59.442Z,100522.36
2019-04-16T02:29:03.482Z,100532.06
2019-04-16T02:32:07.566Z,100523.97
2019-04-16T02:35:11.983Z,100524.55
2019-04-16T02:38:16.411Z,100526.63
2019-04-16T02:41:23.398Z,100534.71
2019-04-16T02:44:26.243Z,100530.55
2019-04-16T02:47:30.085Z,100526.33
2019-04-16T02:50:41.932Z,100526.81
2019-04-16T02:54:01.693Z,100522.73
2019-04-16T02:57:28.012Z,100525.60
2019-04-16T03:00:42.463Z,100525.25
2019-04-16T03:04:00.843Z,100520.27
2019-04-16T03:07:04.998Z,100513.44
2019-04-16T03:10:12.259Z,100520.75
2019-04-16T03:13:15.121Z,100515.24
2019-04-16T03:16:26.938Z,100514.45
2019-04-16T03:19:34.256Z,100511.67
2019-04-16T03:22:38.200Z,100513.20
2019-04-16T03:25:44.406Z,100515.20
2019-04-16T03:28:48.481Z,100515.20
2019-04-16T03:31:57.430Z,100516.84
2019-04-16T03:34:58.318Z,100522.85
2019-04-16T03:38:05.395Z,100517.91
2019-04-16T03:41:08.342Z,100510.11
2019-04-16T03:44:13.148Z,100507.23
2019-04-16T03:47:19.159Z,100509.86
2019-04-16T03:50:23.731Z,100513.55
2019-04-16T03:53:27.970Z,100504.25
2019-04-16T03:56:32.437Z,100510.51
2019-04-16T03:59:36.350Z,100509.95
2019-04-16T04:02:40.208Z,100513.20
2019-04-16T04:05:46.973Z,100512.75
2019-04-16T04:08:53.190Z,100513.66
2019-04-16T04:11:57.218Z,100517.19
2019-04-16T04:15:01.007Z,100518.18
2019-04-16T04:18:07.858Z,100516.00
2019-04-16T04:21:11.293Z,100518.31
2019-04-16T04:24:15.032Z,100526.65
2019-04-16T04:27:19.521Z,100520.81
2019-04-16T04:30:25.745Z,100521.61
2019-04-16T04:33:42.565Z,100526.65
2019-04-16T04:36:45.540Z,100524.08
2019-04-16T04:39:49.543Z,100529.60
2019-04-16T04:42:53.392Z,100534.47
2019-04-16T04:45:57.869Z,100544.39
2019-04-16T04:49:01.748Z,100546.02
2019-04-16T04:52:05.725Z,100543.48
2019-04-16T04:55:09.722Z,100554.84
2019-04-16T04:58:13.551Z,100565.72
2019-04-16T05:01:17.518Z,100562.64
2019-04-16T05:04:33.205Z,100568.20
2019-04-16T05:07:37.345Z,100568.97
2019-04-16T05:10:43.239Z,100566.50
2019-04-16T05:13:47.524Z,100572.17
2019-04-16T05:16:52.101Z,100577.44
2019-04-16T05:19:55.993Z,100577.88
2019-04-16T05:23:00.015Z,100579.94
2019-04-16T05:26:04.710Z,100583.89
2019-04-16T05:29:16.305Z,100576.41
2019-04-16T05:32:18.349Z,100583.28
2019-04-16T05:35:22.201Z,100581.91
2019-04-16T05:38:26.218Z,100582.64
2019-04-16T05:41:30.187Z,100585.47
2019-04-16T05:44:34.364Z,100591.80
2019-04-16T05:47:38.314Z,100595.55
2019-04-16T05:50:42.917Z,100600.06
2019-04-16T05:53:50.939Z,100608.62
2019-04-16T05:56:56.710Z,100615.21
2019-04-16T06:00:03.283Z,100622.77
2019-04-16T06:03:06.230Z,100630.27
2019-04-16T06:06:10.167Z,100640.66
2019-04-16T06:09:14.029Z,100646.05
2019-04-16T06:12:18.605Z,100641.64
2019-04-16T06:15:35.925Z,100639.25
2019-04-16T06:18:49.770Z,100642.02
2019-04-16T06:22:21.753Z,100642.98
2019-04-16T06:25:41.095Z,100645.62
2019-04-16T06:28:55.098Z,100641.28
2019-04-16T06:32:18.494Z,100648.83
2019-04-16T06:35:52.972Z,100643.52
2019-04-16T06:39:04.786Z,100647.61
2019-04-16T06:42:13.390Z,100645.42
2019-04-16T06:45:36.542Z,100646.93
2019-04-16T06:48:45.987Z,100653.98
2019-04-16T06:52:08.174Z,100643.00
2019-04-16T06:55:37.319Z,100636.30
2019-04-16T06:58:51.280Z,100629.38
2019-04-16T07:02:11.239Z,100617.25
2019-04-16T07:05:33.011Z,100607.74
2019-04-16T07:08:50.902Z,100601.39
2019-04-16T07:11:58.416Z,100601.72
2019-04-16T07:15:02.918Z,100601.23
2019-04-16T07:18:07.127Z,100593.77
2019-04-16T07:21:11.447Z,100587.08
2019-04-16T07:24:15.789Z,100580.39
2019-04-16T07:27:21.220Z,100583.73
2019-04-16T07:30:38.416Z,100589.95
2019-04-16T07:34:03.457Z,100605.42
2019-04-16T07:37:12.529Z,100620.09
2019-04-16T07:40:34.881Z,100625.62
2019-04-16T07:43:57.006Z,100627.75
2019-04-16T07:47:26.225Z,100615.09
2019-04-16T07:50:53.029Z,100608.55
2019-04-16T07:54:06.496Z,100611.80
2019-04-16T07:57:10.331Z,100616.91
2019-04-16T08:00:14.850Z,100620.77
2019-04-16T08:03:18.678Z,100620.44
2019-04-16T08:06:22.504Z,100615.58
2019-04-16T08:09:29.915Z,100615.15
2019-04-16T08:12:32.824Z,100617.03
2019-04-16T08:15:37.142Z,100621.06
2019-04-16T08:18:51.045Z,100621.16
2019-04-16T08:21:55.417Z,100621.83
2019-04-16T08:25:03.807Z,100620.73
2019-04-16T08:28:07.781Z,100622.11
2019-04-16T08:31:17.992Z,100622.16
2019-04-16T08:34:21.869Z,100632.70
2019-04-16T08:37:26.032Z,100640.78
2019-04-16T08:40:30.007Z,100627.52
2019-04-16T08:43:33.921Z,100625.80
2019-04-16T08:46:40.130Z,100621.22
2019-04-16T08:49:44.252Z,100618.34
2019-04-16T08:52:48.094Z,100619.92
2019-04-16T08:55:52.006Z,100613.66
2019-04-16T08:59:00.249Z,100617.79
2019-04-16T09:02:01.899Z,100604.07
2019-04-16T09:05:11.061Z,100597.61
2019-04-16T09:08:27.526Z,100603.54
2019-04-16T09:11:35.110Z,100602.15
2019-04-16T09:14:47.279Z,100600.36
2019-04-16T09:17:58.817Z,100597.52
2019-04-16T09:21:02.874Z,100591.57
2019-04-16T09:24:44.596Z,100595.73
2019-04-16T09:27:53.190Z,100595.53
2019-04-16T09:31:27.924Z,100593.02
2019-04-16T09:35:08.887Z,100597.63
2019-04-16T09:38:22.936Z,100598.89
2019-04-16T09:41:39.385Z,100608.78
2019-04-16T09:44:43.352Z,100608.78
2019-04-16T09:47:47.296Z,100599.20
2019-04-16T09:50:51.280Z,100599.20
2019-04-16T09:53:55.418Z,100605.17
2019-04-16T09:56:59.990Z,100596.19
2019-04-16T10:00:08.396Z,100597.88
2019-04-16T10:03:28.262Z,100602.39
2019-04-16T10:06:32.295Z,100591.97
2019-04-16T10:09:36.279Z,100589.11
2019-04-16T10:12:40.747Z,100587.31
2019-04-16T10:15:44.755Z,100579.87
2019-04-16T10:18:48.772Z,100578.28
2019-04-16T10:21:54.239Z,100578.28
2019-04-16T10:25:06.521Z,100591.92
2019-04-16T10:28:17.338Z,100591.86
2019-04-16T10:31:22.056Z,100588.57
2019-04-16T10:34:26.919Z,100577.92
2019-04-16T10:37:30.732Z,100577.92
2019-04-16T10:40:40.212Z,100586.59
2019-04-16T10:44:18.381Z,100586.94
2019-04-16T10:47:50.377Z,100585.62
2019-04-16T10:51:15.216Z,100590.83
2019-04-16T10:54:23.930Z,100577.47
2019-04-16T10:57:46.814Z,100581.22
2019-04-16T11:01:08.681Z,100575.16
2019-04-16T11:04:44.026Z,100574.76
2019-04-16T11:07:49.496Z,100566.28
2019-04-16T11:10:54.204Z,100566.91
2019-04-16T11:14:00.370Z,100567.98
2019-04-16T11:17:04.280Z,100562.22
2019-04-16T11:20:08.491Z,100562.70
2019-04-16T11:23:12.405Z,100557.45
2019-04-16T11:26:16.595Z,100562.50
2019-04-16T11:29:20.712Z,100563.17
2019-04-16T11:32:27.736Z,100558.22
2019-04-16T11:35:32.009Z,100562.12
2019-04-16T11:38:36.088Z,100556.48
2019-04-16T11:41:40.364Z,100556.56
2019-04-16T11:44:44.355Z,100557.94
2019-04-16T11:47:48.645Z,100551.83
2019-04-16T11:50:53.238Z,100555.34
2019-04-16T11:53:58.033Z,100553.92
2019-04-16T11:57:02.449Z,100548.50
2019-04-16T12:00:09.726Z,100547.26
2019-04-16T12:03:41.811Z,100545.07
2019-04-16T12:07:06.012Z,100541.22
2019-04-16T12:10:24.323Z,100539.55
2019-04-16T12:13:34.414Z,100545.86
2019-04-16T12:17:04.932Z,100547.55
2019-04-16T12:20:21.737Z,100554.30
2019-04-16T12:23:41.180Z,100548.51
2019-04-16T12:27:09.827Z,100555.33
2019-04-16T12:30:45.364Z,100560.88
2019-04-16T12:34:13.925Z,100561.27
2019-04-16T12:37:43.616Z,100562.61
2019-04-16T12:41:00.014Z,100562.11
2019-04-16T12:44:24.486Z,100562.73
2019-04-16T12:47:38.494Z,100555.58
2019-04-16T12:50:58.052Z,100552.25
2019-04-16T12:54:12.712Z,100546.17
2019-04-16T12:57:38.819Z,100551.28
2019-04-16T13:01:03.083Z,100550.44
2019-04-16T13:04:25.655Z,100548.38
2019-04-16T13:07:49.002Z,100547.30
2019-04-16T13:11:11.880Z,100544.41
2019-04-16T13:14:33.756Z,100538.09
2019-04-16T13:17:56.335Z,100545.47
2019-04-16T13:21:18.862Z,100552.95
2019-04-16T13:24:27.882Z,100545.16
2019-04-16T13:27:34.249Z,100552.10
2019-04-16T13:30:38.251Z,100554.60
2019-04-16T13:33:43.584Z,100548.23
2019-04-16T13:36:51.517Z,100549.07
2019-04-16T13:40:08.990Z,100553.08
2019-04-16T13:43:15.817Z,100555.98
2019-04-16T13:46:19.807Z,100553.02
2019-04-16T13:49:35.274Z,100552.41
2019-04-16T13:52:39.431Z,100556.34
2019-04-16T13:55:55.910Z,100559.65
2019-04-16T13:59:17.991Z,100555.57
2019-04-16T14:02:41.397Z,100554.62
2019-04-16T14:05:45.291Z,100551.02
2019-04-16T14:08:49.423Z,100553.80
2019-04-16T14:11:53.399Z,100551.75
2019-04-16T14:14:57.380Z,100549.00
2019-04-16T14:18:01.395Z,100540.20
2019-04-16T14:21:05.447Z,100545.31
2019-04-16T14:24:12.437Z,100543.16
2019-04-16T14:27:16.665Z,100544.45
2019-04-16T14:30:23.857Z,100538.98
2019-04-16T14:33:51.566Z,100537.03
2019-04-16T14:36:57.679Z,100538.15
2019-04-16T14:40:23.713Z,100539.41
2019-04-16T14:43:33.381Z,100535.42
2019-04-16T14:46:37.634Z,100534.70
2019-04-16T14:49:41.583Z,100526.33
2019-04-16T14:52:45.600Z,100527.34
2019-04-16T14:56:00.652Z,100526.34
2019-04-16T14:59:10.011Z,100526.77
2019-04-16T15:02:36.694Z,100522.84
2019-04-16T15:06:02.547Z,100515.95
2019-04-16T15:09:31.037Z,100520.20
2019-04-16T15:12:45.327Z,100516.39
2019-04-16T15:16:06.102Z,100522.74
2019-04-16T15:19:18.432Z,100517.80
2019-04-16T15:22:30.821Z,100517.59
2019-04-16T15:25:52.820Z,100523.76
2019-04-16T15:29:06.015Z,100521.18
2019-04-16T15:32:20.790Z,100528.09
2019-04-16T15:35:31.009Z,100534.33
2019-04-16T15:38:42.809Z,100538.45
2019-04-16T15:42:15.945Z,100535.86
2019-04-16T15:45:21.241Z,100536.88
2019-04-16T15:48:51.211Z,100533.67
2019-04-16T15:52:26.403Z,100540.42
2019-04-16T15:55:35.696Z,100544.59
2019-04-16T15:58:52.252Z,100537.59
2019-04-16T16:02:13.863Z,100545.41
2019-04-16T16:05:31.360Z,100547.91
2019-04-16T16:08:39.582Z,100545.77
2019-04-16T16:11:57.575Z,100545.27
2019-04-16T16:15:01.480Z,100547.34
2019-04-16T16:18:05.296Z,100551.52
2019-04-16T16:21:09.209Z,100546.48
2019-04-16T16:24:13.096Z,100557.60
2019-04-16T16:27:17.130Z,100552.11
2019-04-16T16:30:20.948Z,100558.33
2019-04-16T16:33:24.751Z,100556.69
2019-04-16T16:36:29.211Z,100556.22
2019-04-16T16:39:34.455Z,100565.33
2019-04-16T16:42:39.172Z,100568.65
2019-04-16T16:46:05.387Z,100565.13
2019-04-16T16:49:09.438Z,100566.92
2019-04-16T16:52:41.720Z,100571.92
2019-04-16T16:55:52.795Z,100574.09
2019-04-16T16:59:15.660Z,100575.16
2019-04-16T17:02:27.896Z,100574.48
2019-04-16T17:05:34.169Z,100575.73
2019-04-16T17:08:38.069Z,100579.55
2019-04-16T17:11:43.229Z,100574.59
2019-04-16T17:14:47.675Z,100583.35
2019-04-16T17:17:51.604Z,100582.04
2019-04-16T17:20:57.117Z,100586.81
2019-04-16T17:24:01.132Z,100588.63
2019-04-16T17:27:05.347Z,100591.86
2019-04-16T17:30:11.287Z,100586.13
2019-04-16T17:33:15.871Z,100600.61
2019-04-16T17:36:20.584Z,100593.20
2019-04-16T17:39:42.245Z,100596.63
2019-04-16T17:42:44.978Z,100602.59
2019-04-16T17:46:10.997Z,100610.58
2019-04-16T17:49:27.324Z,100610.40
2019-04-16T17:52:50.287Z,100613.25
2019-04-16T17:56:16.232Z,100621.04
2019-04-16T17:59:29.067Z,100621.77
2019-04-16T18:02:55.292Z,100617.86
2019-04-16T18:06:10.593Z,100621.00
2019-04-16T18:09:40.384Z,100629.79
2019-04-16T18:12:56.453Z,100634.06
2019-04-16T18:16:29.878Z,100642.09
2019-04-16T18:19:52.190Z,100646.45
2019-04-16T18:23:11.384Z,100657.66
2019-04-16T18:26:43.904Z,100663.19
2019-04-16T18:29:53.801Z,100667.92
2019-04-16T18:33:15.868Z,100675.53
2019-04-16T18:36:28.616Z,100685.67
2019-04-16T18:39:38.342Z,100701.45
2019-04-16T18:43:16.459Z,100699.40
2019-04-16T18:46:27.006Z,100716.09
2019-04-16T18:49:31.094Z,100737.62
2019-04-16T18:52:36.634Z,100746.87
2019-04-16T18:55:41.003Z,100779.05
2019-04-16T18:58:44.890Z,100784.36
2019-04-16T19:01:51.208Z,100784.36
2019-04-16T19:04:55.570Z,100790.77
2019-04-16T19:08:00.835Z,100810.00
2019-04-16T19:11:06.722Z,100810.00
2019-04-16T19:14:13.182Z,100817.45
2019-04-16T19:17:17.092Z,100823.40
2019-04-16T19:20:20.987Z,100837.12
2019-04-16T19:23:25.250Z,100835.29
2019-04-16T19:26:30.302Z,100830.32
2019-04-16T19:29:34.709Z,100836.34
2019-04-16T19:32:40.044Z,100833.11
2019-04-16T19:35:44.189Z,100842.58
2019-04-16T19:38:49.963Z,100838.51
2019-04-16T19:41:57.219Z,100832.18
2019-04-16T19:45:00.605Z,100833.09
2019-04-16T19:48:05.115Z,100826.56
2019-04-16T19:51:09.438Z,100820.67
2019-04-16T19:54:13.337Z,100825.00
2019-04-16T19:57:17.546Z,100831.22
2019-04-16T20:00:22.992Z,100832.67
2019-04-16T20:03:30.196Z,100837.65
2019-04-16T20:06:35.239Z,100836.45
2019-04-16T20:09:39.457Z,100845.67
2019-04-16T20:12:43.327Z,100848.79
2019-04-16T20:15:47.447Z,100855.16
2019-04-16T20:18:52.504Z,100853.37
2019-04-16T20:21:56.450Z,100852.70
2019-04-16T20:25:00.420Z,100858.83
2019-04-16T20:28:08.677Z,100857.87
2019-04-16T20:31:14.043Z,100863.98
2019-04-16T20:34:18.272Z,100863.98
2019-04-16T20:37:23.477Z,100855.31
2019-04-16T20:40:27.918Z,100853.38
2019-04-16T20:43:31.931Z,100852.16
2019-04-16T20:46:37.286Z,100852.71
2019-04-16T20:49:42.009Z,100855.28
2019-04-16T20:52:46.155Z,100851.31
2019-04-16T20:55:50.012Z,100857.94
2019-04-16T20:58:53.978Z,100858.80
2019-04-16T21:01:58.339Z,100857.02
2019-04-16T21:05:04.511Z,100863.98
2019-04-16T21:08:08.895Z,100858.33
2019-04-16T21:11:12.801Z,100858.69
2019-04-16T21:14:18.918Z,100855.95
2019-04-16T21:17:23.097Z,100857.27
2019-04-16T21:20:27.086Z,100855.22
2019-04-16T21:23:31.859Z,100855.41
2019-04-16T21:26:37.153Z,100863.27
2019-04-16T21:29:41.339Z,100856.80
2019-04-16T21:32:54.455Z,100862.02
2019-04-16T21:36:03.473Z,100858.38
2019-04-16T21:39:17.165Z,100858.21
2019-04-16T21:42:19.572Z,100857.80
2019-04-16T21:45:23.660Z,100861.27
2019-04-16T21:48:27.965Z,100865.07
2019-04-16T21:51:32.023Z,100856.09
2019-04-16T21:54:36.065Z,100856.67
2019-04-16T21:57:42.897Z,100858.46
2019-04-16T22:01:05.124Z,100857.27
2019-04-16T22:04:14.463Z,100861.94
2019-04-16T22:07:18.762Z,100868.56
2019-04-16T22:10:24.326Z,100868.83
2019-04-16T22:13:28.589Z,100872.94
2019-04-16T22:16:32.414Z,100870.39
2019-04-16T22:19:36.444Z,100870.06
2019-04-16T22:22:40.337Z,100873.16
2019-04-16T22:25:44.973Z,100875.13
2019-04-16T22:28:48.934Z,100885.86
2019-04-16T22:31:57.124Z,100889.11
2019-04-16T22:34:58.523Z,100892.62
2019-04-16T22:38:02.715Z,100897.28
2019-04-16T22:41:28.430Z,100893.77
2019-04-16T22:44:46.696Z,100894.64
2019-04-16T22:47:51.454Z,100898.20
2019-04-16T22:50:55.578Z,100898.52
2019-04-16T22:53:59.554Z,100903.17
2019-04-16T22:57:08.796Z,100901.89
2019-04-16T23:00:26.736Z,100901.44
2019-04-16T23:03:31.222Z,100905.73
2019-04-16T23:06:37.670Z,100906.09
2019-04-16T23:09:40.708Z,100912.77
2019-04-16T23:12:44.918Z,100909.02
2019-04-16T23:15:48.856Z,100910.98
2019-04-16T23:18:53.427Z,100915.08
2019-04-16T23:21:58.243Z,100918.52
2019-04-16T23:25:02.227Z,100926.45
2019-04-16T23:28:09.476Z,100918.69
2019-04-16T23:31:11.617Z,100922.84
2019-04-16T23:34:15.608Z,100923.80
2019-04-16T23:37:23.019Z,100918.17
2019-04-16T23:40:25.965Z,100917.35
2019-04-16T23:43:54.928Z,100923.05
2019-04-16T23:47:16.853Z,100925.30
2019-04-16T23:50:45.035Z,100920.12
2019-04-16T23:53:52.400Z,100922.08
2019-04-16T23:57:10.903Z,100917.28
